Time;durP1;ratioP1;P1;durP2;ratioP2;P2;SDS_P1;SDS_P2;PMS_P1;PMS_P2;Temp;Humidity;BMP_temperature;BMP_pressure;BME280_temperature;BME280_humidity;BME280_pressure;Samples;Min_cycle;Max_cycle;Signal;HPM_P1;HPM_P2
2022/01/26 00:00:06;;;;;;;;;;;21.50;44.40;;;;;;5116837;27;19924;-41
2022/01/26 00:08:06;;;;;;;;;;;21.50;44.40;;;;;;5117008;28;19959;-42
2022/01/26 00:10:34;;;;;;;;;;;21.50;44.40;;;;;;5115498;28;20006;-40
2022/01/26 00:13:01;;;;;;;;;;;21.50;44.40;;;;;;5116040;28;19985;-41
2022/01/26 00:15:30;;;;;;;;;;;21.50;44.40;;;;;;5116077;28;19976;-40
2022/01/26 00:17:57;;;;;;;;;;;21.50;44.40;;;;;;5116021;28;19924;-41
2022/01/26 00:20:36;;;;;;;;;;;21.50;44.40;;;;;;5094395;28;19967;-42
2022/01/26 00:23:21;;;;;;;;;;;21.50;44.50;;;;;;5095435;28;20315;-41
2022/01/26 00:38:58;;;;;;;;;;;21.50;44.50;;;;;;5095450;28;19951;-40
2022/01/26 00:41:36;;;;;;;;;;;21.50;44.50;;;;;;5094260;28;19928;-42
2022/01/26 00:44:05;;;;;;;;;;;21.50;44.50;;;;;;5095485;28;19924;-40
2022/01/26 00:46:34;;;;;;;;;;;21.50;44.50;;;;;;5095417;28;19924;-42
2022/01/26 00:49:01;;;;;;;;;;;21.40;44.40;;;;;;5095343;28;19988;-42
2022/01/26 00:51:29;;;;;;;;;;;21.40;44.50;;;;;;5095333;28;19989;-42
2022/01/26 00:54:06;;;;;;;;;;;21.40;44.50;;;;;;5095242;28;19924;-41
2022/01/26 00:56:33;;;;;;;;;;;21.40;44.50;;;;;;5093302;28;19996;-42
2022/01/26 00:59:01;;;;;;;;;;;21.40;44.50;;;;;;5095092;28;19924;-39
2022/01/26 01:01:28;;;;;;;;;;;21.40;44.50;;;;;;5095276;28;19931;-41
2022/01/26 01:03:56;;;;;;;;;;;21.40;44.50;;;;;;5094785;28;19931;-43
2022/01/26 01:06:29;;;;;;;;;;;21.40;44.50;;;;;;5093896;28;20015;-41
2022/01/26 01:08:57;;;;;;;;;;;21.40;44.50;;;;;;5094630;28;20014;-46
2022/01/26 01:11:25;;;;;;;;;;;21.40;44.50;;;;;;5093725;28;19931;-45
2022/01/26 01:13:53;;;;;;;;;;;21.40;44.50;;;;;;5094909;28;19954;-42
2022/01/26 01:16:22;;;;;;;;;;;21.40;44.50;;;;;;5094577;28;19963;-43
2022/01/26 01:29:23;;;;;;;;;;;21.40;44.50;;;;;;5114269;28;19924;-39
2022/01/26 01:31:54;;;;;;;;;;;21.40;44.50;;;;;;5113816;28;19973;-44
2022/01/26 01:34:22;;;;;;;;;;;21.40;44.50;;;;;;5113873;28;19928;-45
2022/01/26 01:36:51;;;;;;;;;;;21.40;44.50;;;;;;5114088;28;20348;-45
2022/01/26 01:39:19;;;;;;;;;;;21.40;44.50;;;;;;5113591;28;20436;-46
2022/01/26 01:41:47;;;;;;;;;;;21.40;44.50;;;;;;5112720;28;19923;-47
2022/01/26 01:44:14;;;;;;;;;;;21.40;44.60;;;;;;5113664;28;19924;-46
2022/01/26 01:46:42;;;;;;;;;;;21.40;44.50;;;;;;5113937;28;19928;-42
2022/01/26 01:49:11;;;;;;;;;;;21.40;44.50;;;;;;5114461;28;19924;-40
2022/01/26 01:51:42;;;;;;;;;;;21.40;44.50;;;;;;5113637;28;19989;-40
2022/01/26 01:54:14;;;;;;;;;;;21.40;44.60;;;;;;5113896;28;19985;-44
2022/01/26 01:56:43;;;;;;;;;;;21.40;44.60;;;;;;5112961;28;19927;-40
2022/01/26 01:59:10;;;;;;;;;;;21.40;44.50;;;;;;5095856;28;19959;-40
2022/01/26 02:01:37;;;;;;;;;;;21.40;44.50;;;;;;5095457;28;20424;-41
2022/01/26 02:04:05;;;;;;;;;;;21.40;44.50;;;;;;5113378;28;19923;-41
2022/01/26 02:06:32;;;;;;;;;;;21.40;44.50;;;;;;5112666;28;20333;-40
2022/01/26 02:08:59;;;;;;;;;;;21.40;44.60;;;;;;5113551;28;19927;-40
2022/01/26 02:11:26;;;;;;;;;;;21.30;44.50;;;;;;5112118;28;19968;-40
2022/01/26 02:16:47;;;;;;;;;;;21.30;44.50;;;;;;5114111;28;19977;-40
2022/01/26 02:52:37;;;;;;;;;;;21.30;44.50;;;;;;5113533;28;19924;-41
2022/01/26 03:00:28;;;;;;;;;;;21.30;44.50;;;;;;5113783;28;19953;-40
2022/01/26 03:03:10;;;;;;;;;;;21.30;44.60;;;;;;5114530;28;19923;-40
2022/01/26 03:05:45;;;;;;;;;;;21.30;44.60;;;;;;5113685;28;19928;-42
2022/01/26 03:08:12;;;;;;;;;;;21.30;44.60;;;;;;5113446;28;19970;-39
2022/01/26 03:10:53;;;;;;;;;;;21.30;44.60;;;;;;5113571;28;20024;-41
2022/01/26 03:13:26;;;;;;;;;;;21.30;44.60;;;;;;5112618;28;20371;-39
2022/01/26 03:15:58;;;;;;;;;;;21.30;44.60;;;;;;5113548;28;19982;-42
2022/01/26 03:20:57;;;;;;;;;;;21.30;44.70;;;;;;5117119;28;19978;-41
2022/01/26 03:34:11;;;;;;;;;;;21.30;44.60;;;;;;5117467;28;20387;-42
2022/01/26 03:37:01;;;;;;;;;;;21.20;44.50;;;;;;5117246;28;20351;-41
2022/01/26 03:39:29;;;;;;;;;;;21.20;44.50;;;;;;5117079;28;19953;-40
2022/01/26 03:42:04;;;;;;;;;;;21.20;44.60;;;;;;5115770;28;19963;-42
2022/01/26 03:44:32;;;;;;;;;;;21.20;44.60;;;;;;5117047;28;19980;-44
2022/01/26 03:47:00;;;;;;;;;;;21.20;44.60;;;;;;5116969;28;19924;-41
2022/01/26 03:49:27;;;;;;;;;;;21.20;44.60;;;;;;5116594;28;19973;-45
2022/01/26 03:51:54;;;;;;;;;;;21.20;44.60;;;;;;5116620;28;19923;-39
2022/01/26 03:54:22;;;;;;;;;;;21.20;44.60;;;;;;5116826;28;19975;-40
2022/01/26 03:56:49;;;;;;;;;;;21.20;44.60;;;;;;5115647;27;19924;-41
2022/01/26 03:59:17;;;;;;;;;;;21.20;44.60;;;;;;5116833;28;19923;-43
2022/01/26 04:01:44;;;;;;;;;;;21.20;44.60;;;;;;5116683;28;20355;-41
2022/01/26 04:04:11;;;;;;;;;;;21.20;44.60;;;;;;5116636;28;19996;-42
2022/01/26 04:06:39;;;;;;;;;;;21.20;44.60;;;;;;5116304;28;19924;-42
2022/01/26 04:09:08;;;;;;;;;;;21.20;44.60;;;;;;5116102;28;19967;-41
2022/01/26 04:11:41;;;;;;;;;;;21.20;44.60;;;;;;5116407;28;19924;-44
2022/01/26 04:14:16;;;;;;;;;;;21.20;44.60;;;;;;5116122;27;20309;-44
2022/01/26 04:16:43;;;;;;;;;;;21.20;44.60;;;;;;5116125;28;19963;-42
2022/01/26 04:19:10;;;;;;;;;;;21.20;44.60;;;;;;5115842;28;19969;-40
2022/01/26 04:22:07;;;;;;;;;;;21.20;44.60;;;;;;5116184;28;19923;-43
2022/01/26 04:24:37;;;;;;;;;;;21.20;44.60;;;;;;5115155;28;19963;-42
2022/01/26 04:29:47;;;;;;;;;;;21.20;44.60;;;;;;5114854;28;19973;-42
2022/01/26 04:32:16;;;;;;;;;;;21.20;44.60;;;;;;5116004;28;19972;-44
2022/01/26 04:34:45;;;;;;;;;;;21.20;44.60;;;;;;5115718;28;19928;-42
2022/01/26 04:39:46;;;;;;;;;;;21.20;44.60;;;;;;5115802;28;20336;-47
2022/01/26 04:42:25;;;;;;;;;;;21.20;44.60;;;;;;5097032;28;19973;-45
2022/01/26 04:45:00;;;;;;;;;;;21.20;44.60;;;;;;5115559;28;19973;-45
2022/01/26 04:47:27;;;;;;;;;;;21.20;44.70;;;;;;5115507;28;20015;-44
2022/01/26 04:49:54;;;;;;;;;;;21.20;44.60;;;;;;5115431;28;19969;-45
2022/01/26 04:52:21;;;;;;;;;;;21.20;44.70;;;;;;5115102;28;19935;-47
2022/01/26 04:54:49;;;;;;;;;;;21.20;44.60;;;;;;5097660;28;19924;-44
2022/01/26 04:57:16;;;;;;;;;;;21.20;44.70;;;;;;5114571;28;19923;-46
2022/01/26 04:59:43;;;;;;;;;;;21.20;44.70;;;;;;5115381;28;20295;-46
2022/01/26 05:02:11;;;;;;;;;;;21.20;44.70;;;;;;5115193;28;20387;-41
2022/01/26 05:04:38;;;;;;;;;;;21.20;44.70;;;;;;5115479;28;20287;-43
2022/01/26 05:07:05;;;;;;;;;;;21.10;44.60;;;;;;5115000;28;19931;-46
2022/01/26 05:09:32;;;;;;;;;;;21.20;44.70;;;;;;5114898;28;19977;-42
2022/01/26 05:12:01;;;;;;;;;;;21.10;44.60;;;;;;5115333;28;19924;-41
2022/01/26 05:14:28;;;;;;;;;;;21.10;44.60;;;;;;5113601;28;19970;-43
2022/01/26 05:16:55;;;;;;;;;;;21.20;44.70;;;;;;5115252;28;20339;-42
2022/01/26 05:19:22;;;;;;;;;;;21.10;44.60;;;;;;5114781;28;19924;-40
2022/01/26 05:21:49;;;;;;;;;;;21.20;44.70;;;;;;5115013;28;19928;-42
2022/01/26 05:24:16;;;;;;;;;;;21.10;44.60;;;;;;5115080;28;20340;-42
2022/01/26 05:26:43;;;;;;;;;;;21.20;44.70;;;;;;5115091;28;19931;-44
2022/01/26 05:29:12;;;;;;;;;;;21.10;44.60;;;;;;5113564;28;19930;-43
2022/01/26 05:31:39;;;;;;;;;;;21.10;44.60;;;;;;5115520;28;19956;-42
2022/01/26 05:34:07;;;;;;;;;;;21.10;44.60;;;;;;5114857;28;19924;-43
2022/01/26 05:36:34;;;;;;;;;;;21.10;44.60;;;;;;5114862;28;19923;-42
2022/01/26 05:39:01;;;;;;;;;;;21.10;44.60;;;;;;5114719;28;19968;-41
2022/01/26 05:41:28;;;;;;;;;;;21.10;44.60;;;;;;5115374;28;20318;-42
2022/01/26 05:43:55;;;;;;;;;;;21.10;44.60;;;;;;5113510;28;19928;-44
2022/01/26 05:46:38;;;;;;;;;;;21.10;44.60;;;;;;5114722;28;19924;-42
2022/01/26 05:49:05;;;;;;;;;;;21.10;44.60;;;;;;5114753;28;19923;-39
2022/01/26 05:51:33;;;;;;;;;;;21.10;44.60;;;;;;5114487;28;19985;-47
2022/01/26 05:54:05;;;;;;;;;;;21.10;44.60;;;;;;5114271;28;20379;-41
2022/01/26 05:56:32;;;;;;;;;;;21.10;44.60;;;;;;5114574;28;19924;-41
2022/01/26 05:58:59;;;;;;;;;;;21.10;44.60;;;;;;5113368;28;20337;-43
2022/01/26 06:01:26;;;;;;;;;;;21.10;44.60;;;;;;5114661;28;19956;-41
2022/01/26 06:03:53;;;;;;;;;;;21.10;44.60;;;;;;5114171;28;19927;-41
2022/01/26 06:06:20;;;;;;;;;;;21.10;44.60;;;;;;5114179;28;19967;-42
2022/01/26 06:08:47;;;;;;;;;;;21.10;44.60;;;;;;5114368;28;19970;-39
2022/01/26 06:11:14;;;;;;;;;;;21.10;44.60;;;;;;5114416;28;19927;-44
2022/01/26 06:13:41;;;;;;;;;;;21.10;44.60;;;;;;5113201;28;19973;-40
2022/01/26 06:16:08;;;;;;;;;;;21.10;44.60;;;;;;5114369;28;20036;-47
2022/01/26 06:18:35;;;;;;;;;;;21.10;44.60;;;;;;5113994;28;19930;-42
2022/01/26 06:21:02;;;;;;;;;;;21.10;44.60;;;;;;5113955;28;20515;-40
2022/01/26 06:23:29;;;;;;;;;;;21.10;44.60;;;;;;5114075;28;19924;-41
2022/01/26 06:25:57;;;;;;;;;;;21.10;44.60;;;;;;5113960;28;19972;-40
2022/01/26 06:28:26;;;;;;;;;;;21.10;45.20;;;;;;5112759;28;19966;-39
2022/01/26 06:31:03;;;;;;;;;;;21.10;44.60;;;;;;5114555;28;19967;-41
2022/01/26 06:33:33;;;;;;;;;;;21.10;44.60;;;;;;5113760;28;19931;-45
2022/01/26 06:36:00;;;;;;;;;;;21.10;44.60;;;;;;5111808;28;19989;-40
2022/01/26 06:38:28;;;;;;;;;;;21.10;44.60;;;;;;5110486;28;19924;-40
2022/01/26 06:40:56;;;;;;;;;;;21.10;44.70;;;;;;5111804;28;19969;-39
2022/01/26 06:43:25;;;;;;;;;;;21.10;44.70;;;;;;5112001;28;20020;-44
2022/01/26 06:46:07;;;;;;;;;;;21.10;44.80;;;;;;5112165;28;19923;-41
2022/01/26 06:48:44;;;;;;;;;;;21.10;44.70;;;;;;5113221;28;19931;-41
2022/01/26 06:51:12;;;;;;;;;;;21.10;44.70;;;;;;5113088;28;20386;-45
2022/01/26 06:53:39;;;;;;;;;;;21.10;44.80;;;;;;5114833;28;19979;-42
2022/01/26 06:56:06;;;;;;;;;;;21.10;44.80;;;;;;5115783;28;20018;-43
2022/01/26 06:58:33;;;;;;;;;;;21.10;44.70;;;;;;5116022;27;20006;-42
2022/01/26 07:01:00;;;;;;;;;;;21.10;44.80;;;;;;5116464;28;19971;-43
2022/01/26 07:03:27;;;;;;;;;;;21.10;44.70;;;;;;5116877;28;19965;-40
2022/01/26 07:05:55;;;;;;;;;;;21.10;44.70;;;;;;5116381;28;20298;-40
2022/01/26 07:08:22;;;;;;;;;;;21.10;44.70;;;;;;5116788;28;19928;-39
2022/01/26 07:10:51;;;;;;;;;;;21.10;44.70;;;;;;5116386;28;20283;-43
2022/01/26 07:13:18;;;;;;;;;;;21.10;44.60;;;;;;5116311;28;19924;-41
2022/01/26 07:23:46;;;;;;;;;;;21.10;44.60;;;;;;5116431;28;20338;-42
2022/01/26 07:26:13;;;;;;;;;;;21.10;44.50;;;;;;5115116;28;20366;-42
2022/01/26 07:28:40;;;;;;;;;;;21.10;44.50;;;;;;5116152;28;19971;-43
2022/01/26 07:31:08;;;;;;;;;;;21.10;44.50;;;;;;5114760;28;19930;-45
2022/01/26 07:33:37;;;;;;;;;;;21.10;44.50;;;;;;5115934;28;19924;-41
2022/01/26 07:36:06;;;;;;;;;;;21.10;44.50;;;;;;5115846;28;19924;-41
2022/01/26 07:38:33;;;;;;;;;;;21.10;44.50;;;;;;5116271;28;19962;-41
2022/01/26 07:41:00;;;;;;;;;;;21.10;45.70;;;;;;5115038;28;19989;-43
2022/01/26 07:43:26;;;;;;;;;;;21.20;45.60;;;;;;5116215;28;20399;-42
2022/01/26 07:45:54;;;;;;;;;;;21.20;45.10;;;;;;5114605;28;19923;-40
2022/01/26 07:48:23;;;;;;;;;;;21.20;45.00;;;;;;5115753;28;20387;-42
2022/01/26 07:50:51;;;;;;;;;;;21.20;44.90;;;;;;5115712;28;20422;-40
2022/01/26 07:53:19;;;;;;;;;;;21.20;44.90;;;;;;5115302;28;20452;-46
2022/01/26 07:55:48;;;;;;;;;;;21.20;44.90;;;;;;5115872;28;19924;-44
2022/01/26 07:58:15;;;;;;;;;;;21.20;44.90;;;;;;5115982;28;19993;-39
2022/01/26 08:00:42;;;;;;;;;;;21.20;44.90;;;;;;5114486;27;19970;-42
2022/01/26 08:03:09;;;;;;;;;;;21.20;44.90;;;;;;5115648;28;19924;-40
2022/01/26 08:05:37;;;;;;;;;;;21.20;45.00;;;;;;5115287;28;19975;-40
2022/01/26 08:08:04;;;;;;;;;;;21.20;45.00;;;;;;5115157;28;19976;-39
2022/01/26 08:10:31;;;;;;;;;;;21.20;45.00;;;;;;5115509;28;19959;-40
2022/01/26 08:12:58;;;;;;;;;;;21.20;45.00;;;;;;5115478;28;19981;-42
2022/01/26 08:15:26;;;;;;;;;;;21.20;45.10;;;;;;5114240;27;19923;-42
2022/01/26 08:17:53;;;;;;;;;;;21.20;45.10;;;;;;5114863;28;19931;-48
2022/01/26 08:20:22;;;;;;;;;;;21.20;45.10;;;;;;5114743;28;20008;-47
2022/01/26 08:22:50;;;;;;;;;;;21.20;45.20;;;;;;5115155;28;19971;-42
2022/01/26 08:25:18;;;;;;;;;;;21.20;45.20;;;;;;5114908;28;19924;-43
2022/01/26 08:27:52;;;;;;;;;;;21.20;45.20;;;;;;5114850;28;20018;-43
2022/01/26 08:30:20;;;;;;;;;;;21.20;45.20;;;;;;5113757;28;19973;-43
2022/01/26 08:32:47;;;;;;;;;;;21.20;45.30;;;;;;5115188;28;19924;-42
2022/01/26 08:35:15;;;;;;;;;;;21.20;45.40;;;;;;5114286;28;19975;-42
2022/01/26 08:37:42;;;;;;;;;;;21.20;45.40;;;;;;5115156;28;20407;-46
2022/01/26 08:40:09;;;;;;;;;;;21.20;45.40;;;;;;5115164;28;19931;-43
2022/01/26 08:42:37;;;;;;;;;;;21.20;45.50;;;;;;5114422;28;19928;-39
2022/01/26 08:45:05;;;;;;;;;;;21.20;45.50;;;;;;5113507;27;19978;-40
2022/01/26 08:47:32;;;;;;;;;;;21.20;45.60;;;;;;5114966;28;19997;-39
2022/01/26 08:49:59;;;;;;;;;;;21.20;45.80;;;;;;5114046;28;19975;-42
2022/01/26 08:52:26;;;;;;;;;;;21.20;45.60;;;;;;5114562;28;19969;-39
2022/01/26 08:54:53;;;;;;;;;;;21.20;45.60;;;;;;5113931;28;20019;-43
2022/01/26 08:57:20;;;;;;;;;;;21.20;45.60;;;;;;5114153;28;19976;-44
2022/01/26 08:59:47;;;;;;;;;;;21.20;46.20;;;;;;5114322;28;19971;-38
2022/01/26 09:02:15;;;;;;;;;;;21.30;45.60;;;;;;5095883;28;19930;-44
2022/01/26 09:04:42;;;;;;;;;;;21.30;45.60;;;;;;5114198;28;19966;-41
2022/01/26 09:07:14;;;;;;;;;;;21.30;45.90;;;;;;5114177;28;19927;-40
2022/01/26 09:09:44;;;;;;;;;;;21.30;45.60;;;;;;5114710;28;20320;-40
2022/01/26 09:12:11;;;;;;;;;;;21.30;45.60;;;;;;5113906;28;19974;-43
2022/01/26 09:14:38;;;;;;;;;;;21.30;45.70;;;;;;5114487;28;19927;-41
2022/01/26 09:17:07;;;;;;;;;;;21.30;45.70;;;;;;5111918;28;20451;-42
2022/01/26 09:19:35;;;;;;;;;;;21.30;45.70;;;;;;5113802;28;20019;-42
2022/01/26 09:22:02;;;;;;;;;;;21.30;45.70;;;;;;5113767;28;20011;-42
2022/01/26 09:24:30;;;;;;;;;;;21.30;45.70;;;;;;5113903;28;19984;-42
2022/01/26 09:26:57;;;;;;;;;;;21.30;45.70;;;;;;5113982;28;19924;-43
2022/01/26 09:29:25;;;;;;;;;;;21.30;45.70;;;;;;5113743;28;19971;-41
2022/01/26 09:31:52;;;;;;;;;;;21.30;45.70;;;;;;5112730;28;19927;-48
2022/01/26 09:34:21;;;;;;;;;;;21.30;45.70;;;;;;5113609;28;19923;-39
2022/01/26 09:36:49;;;;;;;;;;;21.30;45.70;;;;;;5113691;28;19938;-43
2022/01/26 09:39:16;;;;;;;;;;;21.40;45.80;;;;;;5113331;28;20444;-40
2022/01/26 09:41:44;;;;;;;;;;;21.40;45.80;;;;;;5113728;28;19924;-44
2022/01/26 09:44:13;;;;;;;;;;;21.40;45.90;;;;;;5114040;28;19924;-39
2022/01/26 09:46:40;;;;;;;;;;;21.40;45.90;;;;;;5112392;27;19924;-40
2022/01/26 09:49:08;;;;;;;;;;;21.40;45.90;;;;;;5113962;28;19935;-40
2022/01/26 09:51:42;;;;;;;;;;;21.40;45.90;;;;;;5113738;28;20314;-41
2022/01/26 09:54:14;;;;;;;;;;;21.40;45.90;;;;;;5113747;28;19982;-41
2022/01/26 09:56:52;;;;;;;;;;;21.40;45.90;;;;;;5113071;28;20446;-39
2022/01/26 09:59:19;;;;;;;;;;;21.40;45.90;;;;;;5113551;27;20448;-40
2022/01/26 10:01:50;;;;;;;;;;;21.40;45.90;;;;;;5112257;28;20006;-40
2022/01/26 10:04:37;;;;;;;;;;;21.40;45.90;;;;;;5113489;28;19931;-42
2022/01/26 10:07:17;;;;;;;;;;;21.40;45.80;;;;;;5112852;28;19973;-38
2022/01/26 10:18:01;;;;;;;;;;;21.50;46.00;;;;;;5112050;28;20351;-41
2022/01/26 10:20:37;;;;;;;;;;;21.50;46.00;;;;;;5113132;28;19923;-40
2022/01/26 10:23:05;;;;;;;;;;;21.50;46.00;;;;;;5112777;28;20434;-39
2022/01/26 10:25:32;;;;;;;;;;;21.50;46.00;;;;;;5113379;28;19935;-40
2022/01/26 10:28:04;;;;;;;;;;;21.50;46.10;;;;;;5113709;28;19923;-39
2022/01/26 10:30:32;;;;;;;;;;;21.50;46.00;;;;;;5117954;28;20295;-43
2022/01/26 10:33:05;;;;;;;;;;;21.60;46.10;;;;;;5116475;27;19928;-40
2022/01/26 10:35:32;;;;;;;;;;;21.60;46.10;;;;;;5116910;28;20010;-38
2022/01/26 10:37:59;;;;;;;;;;;21.60;46.10;;;;;;5117018;28;19924;-39
2022/01/26 10:40:28;;;;;;;;;;;21.60;46.10;;;;;;5116835;28;19924;-40
2022/01/26 10:43:06;;;;;;;;;;;21.60;46.00;;;;;;5117154;28;19928;-48
2022/01/26 10:45:52;;;;;;;;;;;21.60;46.00;;;;;;5117047;28;20379;-41
2022/01/26 10:48:31;;;;;;;;;;;21.60;46.00;;;;;;5115831;27;20004;-43
2022/01/26 10:53:49;;;;;;;;;;;21.60;46.00;;;;;;5116471;28;19953;-46
2022/01/26 10:56:16;;;;;;;;;;;21.70;46.00;;;;;;5116832;28;19954;-43
2022/01/26 10:58:43;;;;;;;;;;;21.70;46.10;;;;;;5117044;28;19924;-40
2022/01/26 11:01:10;;;;;;;;;;;21.70;46.10;;;;;;5116343;27;20023;-42
2022/01/26 11:03:39;;;;;;;;;;;21.70;46.10;;;;;;5116616;28;20294;-40
2022/01/26 11:06:07;;;;;;;;;;;21.70;46.10;;;;;;5117117;28;19974;-40
2022/01/26 11:08:38;;;;;;;;;;;21.70;46.10;;;;;;5116220;28;20665;-40
2022/01/26 11:11:05;;;;;;;;;;;21.70;46.10;;;;;;5117301;28;19931;-41
2022/01/26 11:13:36;;;;;;;;;;;21.70;46.10;;;;;;5117630;28;20010;-41
2022/01/26 11:16:10;;;;;;;;;;;21.70;46.10;;;;;;5117461;28;20333;-39
2022/01/26 11:18:51;;;;;;;;;;;21.70;46.20;;;;;;5115746;27;19977;-40
2022/01/26 11:21:36;;;;;;;;;;;21.80;46.30;;;;;;5116956;28;19924;-40
2022/01/26 11:24:09;;;;;;;;;;;21.80;46.40;;;;;;5117408;28;19967;-42
2022/01/26 11:26:41;;;;;;;;;;;21.80;46.40;;;;;;5117078;28;19970;-40
2022/01/26 11:29:20;;;;;;;;;;;21.80;46.40;;;;;;5117386;28;20358;-41
2022/01/26 11:31:47;;;;;;;;;;;21.80;46.30;;;;;;5116025;27;19931;-39
2022/01/26 11:34:18;;;;;;;;;;;21.80;46.30;;;;;;5117177;28;19931;-40
2022/01/26 11:36:45;;;;;;;;;;;21.80;46.30;;;;;;5116874;28;19980;-39
2022/01/26 11:42:13;;;;;;;;;;;21.80;46.20;;;;;;5098496;28;19924;-45
2022/01/26 11:42:34;;;;;;;;;;;21.80;46.20;;;;;;5116831;28;19969;-42
2022/01/26 11:45:11;;;;;;;;;;;21.80;46.20;;;;;;5117109;28;19951;-39
2022/01/26 11:47:40;;;;;;;;;;;21.80;46.20;;;;;;5115542;28;19967;-44
2022/01/26 11:50:20;;;;;;;;;;;21.80;46.10;;;;;;5098616;28;20387;-43
2022/01/26 11:53:04;;;;;;;;;;;21.80;46.10;;;;;;5116533;28;20383;-43
2022/01/26 11:55:40;;;;;;;;;;;21.80;46.00;;;;;;5116476;28;20014;-42
2022/01/26 11:58:15;;;;;;;;;;;21.80;46.00;;;;;;5116800;28;20015;-42
2022/01/26 12:01:21;;;;;;;;;;;21.80;46.00;;;;;;5116563;28;19924;-40
2022/01/26 12:03:57;;;;;;;;;;;21.80;45.90;;;;;;5115386;28;20425;-39
2022/01/26 12:06:27;;;;;;;;;;;21.80;45.80;;;;;;5116658;28;19974;-43
2022/01/26 12:08:56;;;;;;;;;;;21.80;45.80;;;;;;5116104;28;19978;-39
2022/01/26 12:11:24;;;;;;;;;;;21.80;45.80;;;;;;5116515;28;19955;-42
2022/01/26 12:14:08;;;;;;;;;;;21.80;45.80;;;;;;5116501;28;19955;-40
2022/01/26 12:16:41;;;;;;;;;;;21.80;45.70;;;;;;5116421;28;19951;-42
2022/01/26 12:19:27;;;;;;;;;;;21.80;45.70;;;;;;5115048;28;19924;-39
2022/01/26 12:36:25;;;;;;;;;;;21.80;45.60;;;;;;5053058;28;19935;-39
2022/01/26 12:39:00;;;;;;;;;;;21.80;45.50;;;;;;5052937;28;20380;-43
2022/01/26 12:43:59;;;;;;;;;;;21.80;45.50;;;;;;5053017;28;19925;-40
2022/01/26 12:46:26;;;;;;;;;;;21.80;45.50;;;;;;5053763;28;20265;-40
2022/01/26 12:48:53;;;;;;;;;;;21.80;45.50;;;;;;5054933;28;19924;-40
2022/01/26 12:51:20;;;;;;;;;;;21.80;45.50;;;;;;5072368;28;19924;-42
2022/01/26 12:53:54;;;;;;;;;;;21.70;45.40;;;;;;5072595;28;19974;-39
2022/01/26 12:56:24;;;;;;;;;;;21.80;45.50;;;;;;5072737;28;20018;-40
2022/01/26 12:58:58;;;;;;;;;;;21.80;45.50;;;;;;5072661;28;19968;-43
2022/01/26 13:01:26;;;;;;;;;;;21.70;45.30;;;;;;5072612;28;19924;-42
2022/01/26 13:03:58;;;;;;;;;;;21.70;45.30;;;;;;5043530;28;19936;-41
2022/01/26 13:06:27;;;;;;;;;;;21.70;45.30;;;;;;5052560;28;19931;-41
2022/01/26 13:08:55;;;;;;;;;;;21.70;45.30;;;;;;5052439;28;19932;-44
2022/01/26 13:11:34;;;;;;;;;;;21.70;45.30;;;;;;5113114;28;20015;-45
2022/01/26 13:14:42;;;;;;;;;;;21.70;45.20;;;;;;5115290;28;19923;-49
2022/01/26 13:28:09;;;;;;;;;;;21.70;45.30;;;;;;5094461;28;19930;-42
2022/01/26 13:38:53;;;;;;;;;;;21.60;45.20;;;;;;5094465;28;20327;-41
2022/01/26 13:47:01;;;;;;;;;;;21.60;45.30;;;;;;5094458;28;19924;-40
2022/01/26 13:59:45;;;;;;;;;;;21.50;45.20;;;;;;5094091;28;20014;-41
2022/01/26 14:02:13;;;;;;;;;;;21.60;45.30;;;;;;5094072;28;19982;-40
2022/01/26 14:04:40;;;;;;;;;;;21.50;45.50;;;;;;5092987;28;19931;-40
2022/01/26 14:07:07;;;;;;;;;;;21.50;45.20;;;;;;5094158;28;20331;-45
2022/01/26 14:09:34;;;;;;;;;;;21.50;45.20;;;;;;5092699;28;19966;-44
2022/01/26 14:12:02;;;;;;;;;;;21.50;45.20;;;;;;5093863;28;19925;-48
2022/01/26 14:14:36;;;;;;;;;;;21.50;45.20;;;;;;5094968;28;19966;-41
2022/01/26 14:17:27;;;;;;;;;;;21.50;45.20;;;;;;5094163;28;20273;-46
2022/01/26 14:20:09;;;;;;;;;;;21.50;45.20;;;;;;5100600;28;20003;-41
2022/01/26 14:22:49;;;;;;;;;;;21.50;45.20;;;;;;5114237;28;19946;-40
2022/01/26 14:25:25;;;;;;;;;;;21.50;45.20;;;;;;5114380;28;20329;-41
2022/01/26 14:27:56;;;;;;;;;;;21.50;45.20;;;;;;5114046;28;19924;-44
2022/01/26 14:30:34;;;;;;;;;;;21.50;45.10;;;;;;5114333;28;19924;-42
2022/01/26 14:41:01;;;;;;;;;;;21.50;45.10;;;;;;5114257;28;19954;-43
2022/01/26 14:54:56;;;;;;;;;;;21.40;45.10;;;;;;5090368;28;20432;-40
2022/01/26 15:41:18;;;;;;;;;;;21.30;45.20;;;;;;5116914;28;19935;-42
2022/01/26 15:44:06;;;;;;;;;;;21.40;45.30;;;;;;5116599;28;20368;-42
2022/01/26 15:52:06;;;;;;;;;;;21.30;45.30;;;;;;5116224;28;20018;-41
2022/01/26 15:57:47;;;;;;;;;;;21.30;45.30;;;;;;5116916;28;20026;-43
2022/01/26 16:08:30;;;;;;;;;;;21.30;45.20;;;;;;5116522;28;19969;-40
2022/01/26 16:16:35;;;;;;;;;;;21.30;45.20;;;;;;5116122;28;19977;-45
2022/01/26 16:36:03;;;;;;;;;;;21.30;45.20;;;;;;5045798;28;19925;-44
2022/01/26 18:17:05;;;;;;;;;;;21.40;44.60;;;;;;5114230;28;19946;-41
2022/01/26 18:50:22;;;;;;;;;;;21.50;44.60;;;;;;5054338;28;19924;-42
2022/01/26 18:52:49;;;;;;;;;;;21.50;44.60;;;;;;5068627;28;20021;-41
2022/01/26 18:55:16;;;;;;;;;;;21.50;44.60;;;;;;5117756;28;19930;-42
2022/01/26 18:57:43;;;;;;;;;;;21.50;44.60;;;;;;5117635;28;19974;-42
2022/01/26 19:00:11;;;;;;;;;;;21.50;44.50;;;;;;5110901;27;19937;-40
2022/01/26 19:02:38;;;;;;;;;;;21.50;44.50;;;;;;5138497;27;19923;-41
2022/01/26 19:05:09;;;;;;;;;;;21.50;44.50;;;;;;5138441;27;20019;-42
2022/01/26 19:07:36;;;;;;;;;;;21.50;44.50;;;;;;5125864;27;19931;-41
2022/01/26 19:10:04;;;;;;;;;;;21.50;44.50;;;;;;5118796;28;19931;-43
2022/01/26 19:12:34;;;;;;;;;;;21.50;45.20;;;;;;5117728;28;20267;-41
2022/01/26 19:15:06;;;;;;;;;;;21.50;44.50;;;;;;5117675;28;19978;-41
2022/01/26 19:17:40;;;;;;;;;;;21.50;44.50;;;;;;5117651;28;20272;-44
2022/01/26 19:25:12;;;;;;;;;;;21.50;44.50;;;;;;5117203;28;19923;-40
2022/01/26 19:33:30;;;;;;;;;;;21.50;44.50;;;;;;5117426;28;19976;-42
2022/01/26 19:44:01;;;;;;;;;;;21.50;44.50;;;;;;5116905;28;19968;-40
2022/01/26 19:52:11;;;;;;;;;;;21.50;44.40;;;;;;5115714;27;19985;-43
2022/01/26 19:54:40;;;;;;;;;;;21.50;44.40;;;;;;5116662;28;19924;-41
2022/01/26 19:57:09;;;;;;;;;;;21.50;44.40;;;;;;5099555;28;19924;-43
2022/01/26 19:59:36;;;;;;;;;;;21.50;44.40;;;;;;5116289;27;19969;-39
2022/01/26 20:02:04;;;;;;;;;;;21.50;44.30;;;;;;5116814;28;19980;-40
2022/01/26 20:04:32;;;;;;;;;;;21.50;44.40;;;;;;5116498;28;19967;-42
2022/01/26 20:07:05;;;;;;;;;;;21.50;44.30;;;;;;5098131;28;19923;-43
2022/01/26 20:09:42;;;;;;;;;;;21.50;44.40;;;;;;5137106;27;19924;-39
2022/01/26 20:12:18;;;;;;;;;;;21.50;44.30;;;;;;5136943;27;20425;-41
2022/01/26 20:14:45;;;;;;;;;;;21.60;44.40;;;;;;5137169;27;19997;-40
2022/01/26 20:17:12;;;;;;;;;;;21.60;44.40;;;;;;5137012;27;20051;-41
2022/01/26 20:19:39;;;;;;;;;;;21.60;44.30;;;;;;5101621;27;20402;-40
2022/01/26 20:22:06;;;;;;;;;;;21.60;44.30;;;;;;5136524;27;20027;-39
2022/01/26 20:24:34;;;;;;;;;;;21.60;44.40;;;;;;5115233;28;20022;-39
2022/01/26 20:27:05;;;;;;;;;;;21.60;44.30;;;;;;5117161;28;19924;-42
2022/01/26 20:29:38;;;;;;;;;;;21.60;44.30;;;;;;5115990;28;19924;-42
2022/01/26 20:32:05;;;;;;;;;;;21.60;44.30;;;;;;5116271;28;19928;-40
2022/01/26 20:34:33;;;;;;;;;;;21.60;44.30;;;;;;5116114;28;19924;-42
2022/01/26 20:37:02;;;;;;;;;;;21.60;44.20;;;;;;5116190;28;20375;-42
2022/01/26 20:39:29;;;;;;;;;;;21.60;44.30;;;;;;5114434;28;19924;-40
2022/01/26 20:41:56;;;;;;;;;;;21.60;44.30;;;;;;5115758;28;19923;-42
2022/01/26 20:44:24;;;;;;;;;;;21.60;44.20;;;;;;5116829;28;20010;-43
2022/01/26 20:46:52;;;;;;;;;;;21.60;44.20;;;;;;5115553;28;19923;-39
2022/01/26 20:49:20;;;;;;;;;;;21.60;44.20;;;;;;5115525;28;19971;-41
2022/01/26 20:51:47;;;;;;;;;;;21.60;44.20;;;;;;5115632;28;19928;-41
2022/01/26 20:54:14;;;;;;;;;;;21.60;44.30;;;;;;5114579;28;20325;-39
2022/01/26 20:56:41;;;;;;;;;;;21.60;44.20;;;;;;5115333;28;19973;-41
2022/01/26 20:59:09;;;;;;;;;;;21.60;44.30;;;;;;5115750;27;19923;-38
2022/01/26 21:01:36;;;;;;;;;;;21.60;44.30;;;;;;5115287;28;19924;-40
2022/01/26 21:04:03;;;;;;;;;;;21.60;44.30;;;;;;5115275;28;19924;-39
2022/01/26 21:06:30;;;;;;;;;;;21.60;44.30;;;;;;5115415;28;20299;-41
2022/01/26 21:08:57;;;;;;;;;;;21.60;44.30;;;;;;5113838;28;19924;-38
2022/01/26 21:11:26;;;;;;;;;;;21.60;44.30;;;;;;5114538;28;19973;-38
2022/01/26 21:13:54;;;;;;;;;;;21.60;44.30;;;;;;5115074;28;20367;-39
2022/01/26 21:16:23;;;;;;;;;;;21.60;44.30;;;;;;5115265;28;19923;-40
2022/01/26 21:18:56;;;;;;;;;;;21.60;44.30;;;;;;5097638;28;19927;-39
2022/01/26 21:21:25;;;;;;;;;;;21.60;44.30;;;;;;5114841;28;20010;-44
2022/01/26 21:23:54;;;;;;;;;;;21.60;44.30;;;;;;5113609;28;20429;-43
2022/01/26 21:26:22;;;;;;;;;;;21.60;44.20;;;;;;5114867;28;19931;-41
2022/01/26 21:28:50;;;;;;;;;;;21.60;44.30;;;;;;5114752;28;19971;-42